Time;durP1;ratioP1;P1;durP2;ratioP2;P2;SDS_P1;SDS_P2;PMS_P1;PMS_P2;Temp;Humidity;BMP_temperature;BMP_pressure;BME280_temperature;BME280_humidity;BME280_pressure;Samples;Min_cycle;Max_cycle;Signal;HPM_P1;HPM_P2
2021/08/15 00:01:19;;;;;;;;;;;26.00;77.90;;;;;;5134004;27;19923;-60
2021/08/15 00:03:48;;;;;;;;;;;26.00;77.80;;;;;;5114878;27;20022;-60
2021/08/15 00:06:15;;;;;;;;;;;26.00;77.70;;;;;;5134030;27;20320;-59
2021/08/15 00:08:42;;;;;;;;;;;26.00;77.90;;;;;;5133592;27;20390;-60
2021/08/15 00:11:09;;;;;;;;;;;26.00;77.80;;;;;;5134991;27;19944;-60
2021/08/15 00:13:36;;;;;;;;;;;26.00;77.90;;;;;;5134805;27;20006;-60
2021/08/15 00:16:04;;;;;;;;;;;26.00;77.80;;;;;;5115809;27;20308;-59
2021/08/15 00:18:31;;;;;;;;;;;26.00;77.80;;;;;;5122252;27;19927;-59
2021/08/15 00:20:58;;;;;;;;;;;26.00;77.90;;;;;;5116281;27;19924;-59
2021/08/15 00:23:25;;;;;;;;;;;26.00;77.80;;;;;;5127138;27;20293;-60
2021/08/15 00:25:52;;;;;;;;;;;26.00;77.80;;;;;;5133248;27;19923;-59
2021/08/15 00:28:19;;;;;;;;;;;25.90;77.80;;;;;;5133129;27;19923;-60
2021/08/15 00:30:46;;;;;;;;;;;26.00;77.80;;;;;;5134357;27;19949;-59
2021/08/15 00:33:13;;;;;;;;;;;26.00;77.70;;;;;;5133503;27;19923;-60
2021/08/15 00:35:40;;;;;;;;;;;26.00;77.80;;;;;;5134425;27;19953;-60
2021/08/15 00:38:07;;;;;;;;;;;25.90;77.70;;;;;;5132041;27;20386;-59
2021/08/15 00:40:34;;;;;;;;;;;26.00;77.50;;;;;;5134261;27;19988;-59
2021/08/15 00:43:01;;;;;;;;;;;26.00;77.60;;;;;;5132458;27;20329;-59
2021/08/15 00:45:28;;;;;;;;;;;26.00;77.60;;;;;;5113737;28;19977;-60
2021/08/15 00:47:55;;;;;;;;;;;26.00;77.70;;;;;;5132538;27;19927;-59
2021/08/15 00:50:22;;;;;;;;;;;26.00;77.50;;;;;;5132612;27;20326;-59
2021/08/15 00:52:49;;;;;;;;;;;25.90;77.60;;;;;;5134110;27;19923;-59
2021/08/15 00:55:16;;;;;;;;;;;26.00;77.80;;;;;;5133191;27;19968;-60
2021/08/15 00:57:43;;;;;;;;;;;26.00;77.70;;;;;;5133090;27;19923;-59
2021/08/15 01:00:11;;;;;;;;;;;25.90;77.60;;;;;;5133948;27;19925;-60
2021/08/15 01:02:42;;;;;;;;;;;25.90;78.20;;;;;;5132590;27;19923;-60
2021/08/15 01:05:09;;;;;;;;;;;25.90;77.70;;;;;;5117415;27;19923;-60
2021/08/15 01:07:37;;;;;;;;;;;25.90;77.70;;;;;;5131146;27;19930;-60
2021/08/15 01:10:05;;;;;;;;;;;25.90;77.60;;;;;;5132934;27;20331;-60
2021/08/15 01:12:32;;;;;;;;;;;25.90;77.70;;;;;;5132458;27;19976;-60
2021/08/15 01:14:59;;;;;;;;;;;25.90;77.60;;;;;;5120966;27;19930;-60
2021/08/15 01:17:26;;;;;;;;;;;25.90;77.70;;;;;;5126582;27;20336;-60
2021/08/15 01:19:54;;;;;;;;;;;25.90;77.70;;;;;;5131419;27;19927;-60
2021/08/15 01:22:22;;;;;;;;;;;25.90;77.70;;;;;;5131223;27;20278;-60
2021/08/15 01:24:49;;;;;;;;;;;25.90;77.70;;;;;;5132532;27;20282;-60
2021/08/15 01:27:25;;;;;;;;;;;25.90;78.50;;;;;;5126129;27;19934;-60
2021/08/15 01:29:52;;;;;;;;;;;25.90;77.80;;;;;;5122640;27;19924;-60
2021/08/15 01:32:21;;;;;;;;;;;25.90;77.80;;;;;;5133798;27;19923;-60
2021/08/15 01:34:48;;;;;;;;;;;25.90;77.80;;;;;;5132393;27;20436;-60
2021/08/15 01:37:15;;;;;;;;;;;25.90;77.80;;;;;;5132601;28;19923;-60
2021/08/15 01:39:42;;;;;;;;;;;25.90;77.80;;;;;;5133444;28;19923;-60
2021/08/15 01:42:09;;;;;;;;;;;25.90;77.80;;;;;;5131702;28;19984;-60
2021/08/15 01:44:36;;;;;;;;;;;25.90;77.80;;;;;;5131929;28;19924;-60
2021/08/15 01:47:07;;;;;;;;;;;25.90;77.80;;;;;;5116339;28;19966;-59
2021/08/15 01:49:34;;;;;;;;;;;25.90;77.80;;;;;;5132499;28;20314;-60
2021/08/15 01:52:01;;;;;;;;;;;25.80;77.80;;;;;;5115584;28;19924;-60
2021/08/15 01:54:27;;;;;;;;;;;25.90;77.80;;;;;;5131904;28;19963;-59
2021/08/15 01:56:54;;;;;;;;;;;25.80;77.70;;;;;;5115073;27;19924;-60
2021/08/15 01:59:23;;;;;;;;;;;25.80;77.70;;;;;;5135612;27;19995;-60
2021/08/15 02:01:50;;;;;;;;;;;25.90;77.70;;;;;;5136284;27;19963;-60
2021/08/15 02:04:18;;;;;;;;;;;25.90;77.80;;;;;;5120362;27;19924;-58
2021/08/15 02:06:45;;;;;;;;;;;25.90;77.80;;;;;;5134249;27;19924;-60
2021/08/15 02:09:12;;;;;;;;;;;25.80;77.80;;;;;;5136078;27;19949;-61
2021/08/15 02:11:38;;;;;;;;;;;25.80;77.70;;;;;;5118215;27;19928;-60
2021/08/15 02:14:05;;;;;;;;;;;25.80;77.70;;;;;;5137760;27;20492;-59
2021/08/15 02:16:33;;;;;;;;;;;25.90;77.70;;;;;;5134825;27;19923;-60
2021/08/15 02:19:00;;;;;;;;;;;25.90;77.70;;;;;;5134628;27;19931;-61
2021/08/15 02:21:27;;;;;;;;;;;25.90;77.50;;;;;;5136863;27;19923;-60
2021/08/15 02:23:55;;;;;;;;;;;25.80;77.40;;;;;;5136919;27;19931;-60
2021/08/15 02:26:22;;;;;;;;;;;25.80;77.20;;;;;;5135911;27;19964;-60
2021/08/15 02:28:49;;;;;;;;;;;25.90;77.20;;;;;;5135373;27;19959;-59
2021/08/15 02:31:16;;;;;;;;;;;25.90;77.20;;;;;;5137192;27;20006;-59
2021/08/15 02:33:43;;;;;;;;;;;25.80;77.10;;;;;;5136830;27;19974;-60
2021/08/15 02:36:10;;;;;;;;;;;25.80;77.10;;;;;;5134411;27;19931;-60
2021/08/15 02:38:37;;;;;;;;;;;25.80;77.20;;;;;;5134440;27;19972;-60
2021/08/15 02:41:04;;;;;;;;;;;25.80;77.20;;;;;;5136528;27;19976;-59
2021/08/15 02:43:31;;;;;;;;;;;25.80;77.30;;;;;;5136595;27;20370;-61
2021/08/15 02:45:58;;;;;;;;;;;25.80;77.30;;;;;;5136961;27;19924;-60
2021/08/15 02:48:25;;;;;;;;;;;25.80;77.40;;;;;;5135338;27;19967;-60
2021/08/15 02:50:52;;;;;;;;;;;25.80;77.50;;;;;;5136858;27;19984;-60
2021/08/15 02:53:19;;;;;;;;;;;25.70;77.40;;;;;;5136663;27;19924;-59
2021/08/15 02:55:46;;;;;;;;;;;25.80;77.40;;;;;;5118800;27;19924;-60
2021/08/15 02:58:13;;;;;;;;;;;25.80;77.30;;;;;;5117351;27;19949;-59
2021/08/15 03:00:40;;;;;;;;;;;25.70;77.20;;;;;;5136678;27;19923;-60
2021/08/15 03:03:07;;;;;;;;;;;25.70;77.10;;;;;;5122288;27;20315;-60
2021/08/15 03:05:34;;;;;;;;;;;25.80;77.10;;;;;;5132706;27;19927;-60
2021/08/15 03:08:01;;;;;;;;;;;25.80;77.10;;;;;;5135222;27;19962;-60
2021/08/15 03:10:28;;;;;;;;;;;25.70;76.90;;;;;;5123594;27;19973;-60
2021/08/15 03:12:55;;;;;;;;;;;25.70;77.00;;;;;;5128115;27;19924;-60
2021/08/15 03:15:22;;;;;;;;;;;25.80;77.00;;;;;;5135046;27;20302;-60
2021/08/15 03:17:49;;;;;;;;;;;25.80;77.00;;;;;;5133501;27;19969;-60
2021/08/15 03:20:16;;;;;;;;;;;25.70;77.70;;;;;;5134697;27;19930;-60
2021/08/15 03:22:43;;;;;;;;;;;25.70;77.00;;;;;;5134466;27;19969;-60
2021/08/15 03:25:10;;;;;;;;;;;25.70;77.10;;;;;;5136176;27;19927;-60
2021/08/15 03:27:37;;;;;;;;;;;25.70;77.20;;;;;;5135831;27;19923;-60
2021/08/15 03:30:04;;;;;;;;;;;25.70;77.20;;;;;;5133580;27;19927;-60
2021/08/15 03:32:31;;;;;;;;;;;25.70;77.20;;;;;;5133440;27;19993;-60
2021/08/15 03:34:59;;;;;;;;;;;25.70;77.20;;;;;;5135562;27;19997;-60
2021/08/15 03:37:25;;;;;;;;;;;25.70;77.20;;;;;;5134374;27;19923;-60
2021/08/15 03:39:53;;;;;;;;;;;25.70;77.20;;;;;;5134910;27;19924;-60
2021/08/15 03:42:20;;;;;;;;;;;25.70;77.20;;;;;;5135407;27;19924;-60
2021/08/15 03:44:47;;;;;;;;;;;25.70;77.10;;;;;;5134534;27;19923;-60
2021/08/15 03:47:14;;;;;;;;;;;25.70;77.10;;;;;;5116675;27;20312;-60
2021/08/15 03:49:41;;;;;;;;;;;25.70;77.30;;;;;;5118076;27;19928;-60
2021/08/15 03:52:08;;;;;;;;;;;25.70;77.20;;;;;;5133503;27;20390;-60
2021/08/15 03:54:35;;;;;;;;;;;25.70;77.20;;;;;;5125888;27;20010;-59
2021/08/15 03:57:02;;;;;;;;;;;25.70;77.20;;;;;;5133790;27;19923;-60
2021/08/15 03:59:29;;;;;;;;;;;25.70;77.20;;;;;;5135451;27;20000;-60
2021/08/15 04:01:56;;;;;;;;;;;25.70;78.00;;;;;;5134289;27;19976;-60
2021/08/15 04:04:23;;;;;;;;;;;25.70;77.30;;;;;;5133661;27;19930;-61
2021/08/15 04:06:50;;;;;;;;;;;25.70;77.30;;;;;;5133924;27;19968;-60
2021/08/15 04:09:17;;;;;;;;;;;25.70;77.20;;;;;;5132493;27;19923;-60
2021/08/15 04:11:44;;;;;;;;;;;25.70;77.00;;;;;;5115510;27;20386;-60
2021/08/15 04:14:11;;;;;;;;;;;25.70;77.00;;;;;;5135223;27;19927;-59
2021/08/15 04:16:38;;;;;;;;;;;25.70;76.90;;;;;;5132674;27;19924;-60
2021/08/15 04:19:05;;;;;;;;;;;25.70;76.80;;;;;;5133340;27;19968;-60
2021/08/15 04:21:32;;;;;;;;;;;25.70;76.70;;;;;;5132873;27;19928;-60
2021/08/15 04:23:59;;;;;;;;;;;25.70;76.70;;;;;;5134726;27;19924;-60
2021/08/15 04:26:27;;;;;;;;;;;25.70;76.70;;;;;;5133196;27;19968;-61
2021/08/15 04:28:54;;;;;;;;;;;25.70;76.60;;;;;;5132312;27;19928;-60
2021/08/15 04:31:21;;;;;;;;;;;25.70;76.60;;;;;;5134651;27;20406;-61
2021/08/15 04:33:48;;;;;;;;;;;25.70;76.60;;;;;;5133448;27;19923;-61
2021/08/15 04:36:15;;;;;;;;;;;25.70;76.50;;;;;;5134008;27;19952;-60
2021/08/15 04:38:42;;;;;;;;;;;25.70;76.40;;;;;;5133617;27;19968;-61
2021/08/15 04:41:09;;;;;;;;;;;25.70;76.40;;;;;;5133554;27;19927;-60
2021/08/15 04:43:36;;;;;;;;;;;25.70;76.40;;;;;;5134011;27;19923;-59
2021/08/15 04:46:03;;;;;;;;;;;25.70;76.40;;;;;;5134204;27;20302;-60
2021/08/15 04:48:30;;;;;;;;;;;25.70;76.40;;;;;;5132796;27;19924;-60
2021/08/15 04:50:57;;;;;;;;;;;25.70;76.50;;;;;;5132911;27;19930;-60
2021/08/15 04:53:24;;;;;;;;;;;25.70;76.50;;;;;;5119529;27;20329;-60
2021/08/15 04:55:51;;;;;;;;;;;25.70;76.50;;;;;;5131421;27;19927;-59
2021/08/15 04:58:18;;;;;;;;;;;25.80;76.50;;;;;;5120930;27;19974;-59
2021/08/15 05:00:45;;;;;;;;;;;25.80;76.40;;;;;;5127761;27;20453;-60
2021/08/15 05:03:16;;;;;;;;;;;25.80;76.20;;;;;;5133904;27;20386;-60
2021/08/15 05:05:44;;;;;;;;;;;25.80;76.40;;;;;;5132897;27;20318;-60
2021/08/15 05:08:11;;;;;;;;;;;25.80;76.30;;;;;;5131827;27;19930;-60
2021/08/15 05:10:40;;;;;;;;;;;25.90;76.40;;;;;;5132926;27;19972;-60
2021/08/15 05:13:07;;;;;;;;;;;25.80;76.40;;;;;;5114927;27;20286;-60
2021/08/15 05:15:34;;;;;;;;;;;25.80;76.20;;;;;;5132629;27;19927;-60
2021/08/15 05:18:02;;;;;;;;;;;25.90;76.30;;;;;;5132542;27;19929;-60
2021/08/15 05:20:29;;;;;;;;;;;25.90;76.30;;;;;;5131234;27;19924;-60
2021/08/15 05:22:57;;;;;;;;;;;25.90;76.30;;;;;;5132593;27;19954;-60
2021/08/15 05:25:25;;;;;;;;;;;25.90;76.20;;;;;;5133917;27;19924;-60
2021/08/15 05:27:52;;;;;;;;;;;26.00;76.10;;;;;;5132040;27;19928;-59
2021/08/15 05:30:19;;;;;;;;;;;26.00;76.10;;;;;;5133493;27;19946;-60
2021/08/15 05:32:46;;;;;;;;;;;26.00;76.00;;;;;;5114047;28;19939;-60
2021/08/15 05:35:14;;;;;;;;;;;26.00;75.90;;;;;;5134116;27;19927;-59
2021/08/15 05:37:44;;;;;;;;;;;26.00;75.80;;;;;;5131403;28;19938;-59
2021/08/15 05:40:11;;;;;;;;;;;26.00;75.90;;;;;;5114898;28;20327;-60
2021/08/15 05:42:38;;;;;;;;;;;26.10;75.90;;;;;;5116282;28;19924;-60
2021/08/15 05:45:06;;;;;;;;;;;26.10;75.90;;;;;;5131815;28;19931;-60
2021/08/15 05:47:33;;;;;;;;;;;26.10;75.80;;;;;;5113119;28;19930;-59
2021/08/15 05:50:00;;;;;;;;;;;26.10;75.70;;;;;;5114073;28;20280;-60
2021/08/15 05:52:27;;;;;;;;;;;26.20;75.60;;;;;;5130771;28;19930;-60
2021/08/15 05:54:54;;;;;;;;;;;26.20;75.60;;;;;;5113620;28;19934;-60
2021/08/15 05:57:21;;;;;;;;;;;26.20;75.70;;;;;;5113949;28;19924;-60
2021/08/15 05:59:48;;;;;;;;;;;26.20;75.70;;;;;;5133571;28;19924;-60
2021/08/15 06:02:15;;;;;;;;;;;26.20;75.60;;;;;;5132044;28;20363;-60
2021/08/15 06:04:43;;;;;;;;;;;26.20;75.40;;;;;;5131216;28;19946;-60
2021/08/15 06:07:11;;;;;;;;;;;26.20;75.30;;;;;;5132400;28;19931;-59
2021/08/15 06:09:39;;;;;;;;;;;26.20;75.30;;;;;;5133081;28;19923;-60
2021/08/15 06:12:06;;;;;;;;;;;26.20;75.50;;;;;;5132355;28;19931;-60
2021/08/15 06:14:34;;;;;;;;;;;26.30;75.40;;;;;;5133355;28;19941;-59
2021/08/15 06:17:02;;;;;;;;;;;26.30;75.80;;;;;;5133241;28;19927;-59
2021/08/15 06:19:29;;;;;;;;;;;26.30;75.50;;;;;;5131807;28;19924;-59
2021/08/15 06:21:56;;;;;;;;;;;26.30;75.30;;;;;;5129395;28;19946;-60
2021/08/15 06:24:23;;;;;;;;;;;26.30;75.40;;;;;;5118050;28;19924;-59
2021/08/15 06:26:51;;;;;;;;;;;26.30;75.30;;;;;;5112678;28;19932;-59
2021/08/15 06:29:18;;;;;;;;;;;26.40;75.10;;;;;;5115837;28;19923;-60
2021/08/15 06:31:45;;;;;;;;;;;26.40;75.00;;;;;;5112774;28;19927;-60
2021/08/15 06:34:12;;;;;;;;;;;26.40;75.30;;;;;;5130950;28;19923;-60
2021/08/15 06:36:39;;;;;;;;;;;26.40;75.30;;;;;;5113952;28;19924;-60
2021/08/15 06:39:06;;;;;;;;;;;26.40;75.70;;;;;;5132300;28;19923;-59
2021/08/15 06:41:33;;;;;;;;;;;26.40;75.20;;;;;;5114692;28;19924;-61
2021/08/15 06:44:00;;;;;;;;;;;26.50;75.00;;;;;;5133672;27;19923;-61
2021/08/15 06:46:27;;;;;;;;;;;26.50;75.00;;;;;;5136881;27;20313;-60
2021/08/15 06:48:54;;;;;;;;;;;26.50;75.40;;;;;;5122034;27;19956;-60
2021/08/15 06:51:21;;;;;;;;;;;26.50;75.10;;;;;;5118519;27;19931;-60
2021/08/15 06:53:48;;;;;;;;;;;26.50;74.80;;;;;;5119191;27;19946;-60
2021/08/15 06:56:15;;;;;;;;;;;26.60;75.20;;;;;;5135227;27;19927;-60
2021/08/15 06:58:42;;;;;;;;;;;26.60;75.50;;;;;;5135368;27;19923;-60
2021/08/15 07:01:10;;;;;;;;;;;26.50;75.00;;;;;;5134946;27;20019;-60
2021/08/15 07:03:37;;;;;;;;;;;26.60;74.90;;;;;;5136317;27;19923;-60
2021/08/15 07:06:04;;;;;;;;;;;26.60;74.60;;;;;;5135486;27;20322;-60
2021/08/15 07:08:31;;;;;;;;;;;26.60;75.00;;;;;;5136119;27;19930;-60
2021/08/15 07:10:58;;;;;;;;;;;26.60;75.00;;;;;;5134799;27;19952;-59
2021/08/15 07:13:25;;;;;;;;;;;26.70;74.80;;;;;;5136019;27;19968;-61
2021/08/15 07:15:53;;;;;;;;;;;26.70;74.60;;;;;;5136047;27;20018;-60
2021/08/15 07:18:20;;;;;;;;;;;26.70;74.50;;;;;;5133057;27;19930;-60
2021/08/15 07:20:49;;;;;;;;;;;26.70;74.20;;;;;;5118686;27;19923;-60
2021/08/15 07:23:16;;;;;;;;;;;26.80;74.60;;;;;;5135403;27;19923;-60
2021/08/15 07:25:43;;;;;;;;;;;26.80;74.70;;;;;;5118155;27;19939;-60
2021/08/15 07:28:10;;;;;;;;;;;26.80;74.30;;;;;;5136259;27;19927;-60
2021/08/15 07:30:37;;;;;;;;;;;26.80;74.90;;;;;;5135066;27;20386;-60
2021/08/15 07:33:05;;;;;;;;;;;26.90;74.60;;;;;;5136120;27;19923;-60
2021/08/15 07:35:34;;;;;;;;;;;26.90;74.70;;;;;;5136210;27;19923;-60
2021/08/15 07:38:01;;;;;;;;;;;26.90;75.00;;;;;;5134909;27;20340;-60
2021/08/15 07:40:28;;;;;;;;;;;26.90;75.30;;;;;;5134697;27;20290;-59
2021/08/15 07:42:55;;;;;;;;;;;26.90;75.00;;;;;;5135785;27;19931;-60
2021/08/15 07:45:24;;;;;;;;;;;26.90;74.60;;;;;;5135878;27;20294;-60
2021/08/15 07:47:51;;;;;;;;;;;26.90;74.50;;;;;;5134542;27;19957;-60
2021/08/15 07:50:23;;;;;;;;;;;26.90;74.70;;;;;;5134200;27;19923;-60
2021/08/15 07:52:50;;;;;;;;;;;27.00;74.90;;;;;;5135745;27;19923;-60
2021/08/15 07:55:17;;;;;;;;;;;27.00;75.50;;;;;;5133375;27;20379;-60
2021/08/15 07:57:44;;;;;;;;;;;27.00;75.60;;;;;;5134500;27;19931;-60
2021/08/15 08:00:11;;;;;;;;;;;27.00;75.40;;;;;;5134407;27;19924;-60
2021/08/15 08:02:39;;;;;;;;;;;27.00;75.20;;;;;;5134093;27;19956;-60
2021/08/15 08:05:06;;;;;;;;;;;27.00;74.90;;;;;;5133633;27;19985;-60
2021/08/15 08:07:33;;;;;;;;;;;27.10;74.50;;;;;;5133812;27;19923;-61
2021/08/15 08:10:00;;;;;;;;;;;27.00;73.90;;;;;;5133759;27;19927;-60
2021/08/15 08:12:31;;;;;;;;;;;27.10;74.10;;;;;;5133928;27;19932;-60
2021/08/15 08:14:59;;;;;;;;;;;27.00;73.60;;;;;;5135361;27;19968;-60
2021/08/15 08:17:26;;;;;;;;;;;27.10;73.50;;;;;;5131080;27;19966;-61
2021/08/15 08:19:53;;;;;;;;;;;27.10;74.00;;;;;;5116667;27;19930;-60
2021/08/15 08:22:20;;;;;;;;;;;27.10;74.60;;;;;;5118690;27;19938;-61
2021/08/15 08:24:47;;;;;;;;;;;27.10;75.50;;;;;;5133414;27;19973;-60
2021/08/15 08:27:14;;;;;;;;;;;27.10;73.20;;;;;;5134574;27;20387;-61
2021/08/15 08:29:41;;;;;;;;;;;27.10;74.90;;;;;;5132873;27;19923;-60
2021/08/15 08:32:08;;;;;;;;;;;27.10;74.20;;;;;;5133516;27;19924;-61
2021/08/15 08:34:36;;;;;;;;;;;27.20;74.30;;;;;;5134147;27;19935;-61
2021/08/15 08:37:03;;;;;;;;;;;27.20;73.80;;;;;;5132139;27;19968;-60
2021/08/15 08:39:30;;;;;;;;;;;27.20;73.90;;;;;;5134611;27;19923;-60
2021/08/15 08:42:01;;;;;;;;;;;27.20;74.00;;;;;;5134320;27;19923;-61
2021/08/15 08:44:29;;;;;;;;;;;27.20;74.10;;;;;;5133551;27;19923;-60
2021/08/15 08:47:03;;;;;;;;;;;27.20;74.20;;;;;;5134753;27;19962;-60
2021/08/15 08:49:31;;;;;;;;;;;27.20;74.20;;;;;;5134217;27;20454;-60
2021/08/15 08:51:58;;;;;;;;;;;27.20;73.90;;;;;;5134208;27;20398;-60
2021/08/15 08:54:26;;;;;;;;;;;27.20;74.00;;;;;;5127805;27;20376;-60
2021/08/15 08:56:54;;;;;;;;;;;27.20;73.90;;;;;;5126549;27;19923;-60
2021/08/15 08:59:21;;;;;;;;;;;27.20;74.00;;;;;;5133082;27;19947;-60
2021/08/15 09:01:48;;;;;;;;;;;27.20;74.00;;;;;;5132951;27;19924;-60
2021/08/15 09:04:16;;;;;;;;;;;27.20;74.00;;;;;;5132522;27;20379;-61
2021/08/15 09:06:43;;;;;;;;;;;27.20;73.90;;;;;;5125880;27;19927;-60
2021/08/15 09:09:14;;;;;;;;;;;27.20;73.80;;;;;;5115827;27;19930;-62
2021/08/15 09:11:43;;;;;;;;;;;27.20;74.00;;;;;;5121363;27;20018;-60
2021/08/15 09:14:11;;;;;;;;;;;27.30;73.90;;;;;;5127986;27;19923;-61
2021/08/15 09:16:49;;;;;;;;;;;27.30;74.10;;;;;;5117204;27;19923;-61
2021/08/15 09:19:25;;;;;;;;;;;27.30;73.90;;;;;;5121388;27;20037;-61
2021/08/15 09:21:54;;;;;;;;;;;27.30;74.00;;;;;;5133484;27;19934;-60
2021/08/15 09:24:21;;;;;;;;;;;27.30;73.90;;;;;;5131617;27;19923;-60
2021/08/15 09:27:08;;;;;;;;;;;27.30;74.00;;;;;;5132113;27;20003;-60
2021/08/15 09:29:35;;;;;;;;;;;27.30;74.00;;;;;;5127334;27;19924;-60
2021/08/15 09:32:02;;;;;;;;;;;27.30;74.30;;;;;;5119578;27;19923;-61
2021/08/15 09:34:29;;;;;;;;;;;27.30;74.00;;;;;;5133950;27;19923;-60
2021/08/15 09:36:56;;;;;;;;;;;27.40;74.30;;;;;;5132535;27;19923;-60
2021/08/15 09:39:34;;;;;;;;;;;27.30;74.00;;;;;;5133575;27;19923;-61
2021/08/15 09:42:02;;;;;;;;;;;27.30;74.00;;;;;;5132284;28;19923;-61
2021/08/15 09:44:30;;;;;;;;;;;27.40;74.00;;;;;;5132527;28;20337;-60
2021/08/15 09:47:04;;;;;;;;;;;27.40;74.10;;;;;;5132235;28;19923;-61
2021/08/15 09:49:42;;;;;;;;;;;27.40;74.10;;;;;;5133798;28;19953;-61
2021/08/15 09:52:11;;;;;;;;;;;27.40;74.30;;;;;;5114867;28;19977;-61
2021/08/15 09:54:38;;;;;;;;;;;27.40;74.50;;;;;;5132177;28;19928;-61
2021/08/15 09:57:11;;;;;;;;;;;27.40;74.50;;;;;;5131766;28;19924;-61
2021/08/15 09:59:39;;;;;;;;;;;27.40;74.90;;;;;;5132217;28;19931;-60
2021/08/15 10:02:07;;;;;;;;;;;27.40;74.80;;;;;;5131227;28;19927;-61
2021/08/15 10:04:34;;;;;;;;;;;27.40;74.40;;;;;;5132599;28;20397;-60
2021/08/15 10:07:01;;;;;;;;;;;27.50;74.50;;;;;;5133802;28;19924;-61
2021/08/15 10:09:30;;;;;;;;;;;27.40;74.80;;;;;;5116536;28;20004;-61
2021/08/15 10:11:57;;;;;;;;;;;27.40;74.70;;;;;;5132359;28;20022;-61
2021/08/15 10:14:24;;;;;;;;;;;27.50;74.60;;;;;;5130804;28;20370;-61
2021/08/15 10:16:51;;;;;;;;;;;27.50;75.00;;;;;;5117708;28;19975;-61
2021/08/15 10:19:25;;;;;;;;;;;27.40;75.20;;;;;;5129121;27;19929;-60
2021/08/15 10:21:53;;;;;;;;;;;27.50;75.50;;;;;;5135848;27;19928;-60
2021/08/15 10:24:20;;;;;;;;;;;27.50;74.80;;;;;;5137132;27;20022;-60
2021/08/15 10:26:51;;;;;;;;;;;27.50;75.10;;;;;;5136060;27;19923;-62
2021/08/15 10:29:32;;;;;;;;;;;27.50;75.30;;;;;;5137410;27;19931;-60
2021/08/15 10:32:15;;;;;;;;;;;27.50;74.80;;;;;;5137247;27;19928;-60
2021/08/15 10:34:48;;;;;;;;;;;27.50;74.80;;;;;;5135802;27;19930;-60
2021/08/15 10:37:25;;;;;;;;;;;27.50;75.20;;;;;;5137300;27;19923;-60
2021/08/15 10:39:53;;;;;;;;;;;27.50;74.90;;;;;;5136699;27;20014;-60
2021/08/15 10:42:38;;;;;;;;;;;27.50;75.20;;;;;;5135772;27;19972;-60
2021/08/15 10:45:13;;;;;;;;;;;27.50;74.80;;;;;;5136879;27;20283;-60
2021/08/15 10:47:41;;;;;;;;;;;27.50;74.50;;;;;;5135523;27;19923;-61
2021/08/15 10:50:08;;;;;;;;;;;27.50;74.80;;;;;;5136486;27;19924;-60
2021/08/15 10:52:40;;;;;;;;;;;27.50;75.10;;;;;;5124051;27;19931;-60
2021/08/15 10:55:13;;;;;;;;;;;27.50;74.50;;;;;;5130294;27;19927;-60
2021/08/15 10:57:40;;;;;;;;;;;27.50;74.80;;;;;;5124351;27;20287;-61
2021/08/15 11:00:26;;;;;;;;;;;27.50;74.70;;;;;;5130491;27;19972;-61
2021/08/15 11:02:53;;;;;;;;;;;27.60;74.30;;;;;;5134959;27;19923;-61
2021/08/15 11:05:37;;;;;;;;;;;27.50;74.30;;;;;;5123598;27;20018;-60
2021/08/15 11:08:24;;;;;;;;;;;27.50;74.30;;;;;;5132430;27;20018;-60
2021/08/15 11:11:08;;;;;;;;;;;27.50;74.30;;;;;;5136045;27;19924;-60
2021/08/15 11:13:36;;;;;;;;;;;27.50;74.20;;;;;;5134379;27;19938;-60
2021/08/15 11:16:21;;;;;;;;;;;27.50;74.90;;;;;;5133986;27;20252;-61
2021/08/15 11:19:07;;;;;;;;;;;27.50;74.20;;;;;;5134941;27;19931;-61
2021/08/15 11:21:52;;;;;;;;;;;27.60;74.30;;;;;;5133738;27;19924;-60
2021/08/15 11:24:21;;;;;;;;;;;27.60;73.70;;;;;;5135628;27;19923;-60
2021/08/15 11:26:49;;;;;;;;;;;27.60;74.20;;;;;;5134370;27;20386;-61
2021/08/15 11:29:18;;;;;;;;;;;27.60;74.20;;;;;;5135860;27;19923;-60
2021/08/15 11:31:49;;;;;;;;;;;27.60;74.20;;;;;;5116635;27;20279;-61
2021/08/15 11:34:16;;;;;;;;;;;27.60;73.20;;;;;;5135404;27;19927;-60
2021/08/15 11:36:43;;;;;;;;;;;27.60;73.50;;;;;;5135524;27;19923;-61
2021/08/15 11:39:10;;;;;;;;;;;27.60;73.60;;;;;;5134640;27;19930;-60
2021/08/15 11:41:40;;;;;;;;;;;27.60;73.80;;;;;;5134424;27;20009;-61
2021/08/15 11:44:07;;;;;;;;;;;27.60;73.70;;;;;;5134194;27;19927;-61
2021/08/15 11:46:34;;;;;;;;;;;27.60;73.40;;;;;;5135786;27;19923;-60
2021/08/15 11:49:01;;;;;;;;;;;27.60;73.40;;;;;;5134301;27;19930;-61
2021/08/15 11:51:28;;;;;;;;;;;27.60;73.60;;;;;;5124145;27;19924;-60
2021/08/15 11:53:55;;;;;;;;;;;27.60;73.80;;;;;;5100934;27;19974;-60
2021/08/15 11:56:23;;;;;;;;;;;27.60;74.20;;;;;;5134180;27;19924;-61
2021/08/15 11:58:54;;;;;;;;;;;27.60;73.20;;;;;;5132973;27;19984;-61
2021/08/15 12:01:22;;;;;;;;;;;27.60;73.30;;;;;;5126501;27;19930;-61
2021/08/15 12:03:57;;;;;;;;;;;27.60;72.90;;;;;;5124325;27;20014;-60
2021/08/15 12:06:24;;;;;;;;;;;27.60;72.70;;;;;;5134278;27;20379;-60
2021/08/15 12:08:51;;;;;;;;;;;27.60;73.10;;;;;;5135034;27;19927;-61
2021/08/15 12:11:27;;;;;;;;;;;27.60;72.80;;;;;;5133570;27;19924;-60
2021/08/15 12:14:08;;;;;;;;;;;27.60;72.90;;;;;;5133600;27;19924;-61
2021/08/15 12:16:36;;;;;;;;;;;27.60;73.40;;;;;;5133586;27;19930;-61
2021/08/15 12:19:05;;;;;;;;;;;27.60;72.80;;;;;;5132283;27;20400;-60
2021/08/15 12:21:37;;;;;;;;;;;27.60;72.80;;;;;;5132431;27;19927;-60
2021/08/15 12:24:20;;;;;;;;;;;27.60;72.60;;;;;;5133133;27;20004;-61
2021/08/15 12:26:57;;;;;;;;;;;27.60;72.70;;;;;;5134576;27;19931;-61
2021/08/15 12:29:24;;;;;;;;;;;27.60;73.00;;;;;;5133291;27;19923;-61
2021/08/15 12:32:01;;;;;;;;;;;27.60;72.40;;;;;;5134828;27;20417;-61
2021/08/15 12:34:29;;;;;;;;;;;27.60;72.40;;;;;;5134475;27;20378;-61
2021/08/15 12:36:57;;;;;;;;;;;27.60;72.40;;;;;;5133071;27;20375;-60
2021/08/15 12:39:31;;;;;;;;;;;27.60;72.00;;;;;;5131750;27;19938;-61
2021/08/15 12:41:59;;;;;;;;;;;27.70;71.90;;;;;;5128417;27;19931;-60
2021/08/15 12:44:28;;;;;;;;;;;27.60;71.80;;;;;;5116113;27;19973;-60
2021/08/15 12:47:06;;;;;;;;;;;27.70;71.80;;;;;;5115842;27;19924;-60
2021/08/15 12:49:39;;;;;;;;;;;27.60;71.50;;;;;;5116324;27;19932;-61
2021/08/15 12:52:09;;;;;;;;;;;27.60;71.40;;;;;;5118849;27;20382;-61
2021/08/15 12:54:58;;;;;;;;;;;27.60;72.20;;;;;;5130969;27;19930;-61
2021/08/15 12:57:25;;;;;;;;;;;27.60;71.40;;;;;;5128252;27;20009;-61
2021/08/15 12:59:52;;;;;;;;;;;27.60;71.70;;;;;;5118274;27;19942;-60
2021/08/15 13:02:24;;;;;;;;;;;27.60;71.30;;;;;;5132865;27;19927;-61
2021/08/15 13:04:58;;;;;;;;;;;27.60;71.30;;;;;;5132326;27;19937;-60
2021/08/15 13:07:26;;;;;;;;;;;27.60;71.30;;;;;;5131713;27;20367;-60
2021/08/15 13:09:54;;;;;;;;;;;27.60;71.00;;;;;;5131740;27;19923;-60
2021/08/15 13:12:22;;;;;;;;;;;27.70;71.10;;;;;;5131379;27;19930;-60
2021/08/15 13:14:50;;;;;;;;;;;27.70;71.10;;;;;;5133976;27;19931;-60
2021/08/15 13:17:17;;;;;;;;;;;27.60;70.60;;;;;;5133909;27;19928;-61
2021/08/15 13:19:44;;;;;;;;;;;27.70;70.90;;;;;;5132926;27;19923;-60
2021/08/15 13:22:11;;;;;;;;;;;27.70;70.80;;;;;;5132912;27;19972;-62
2021/08/15 13:24:38;;;;;;;;;;;27.60;70.40;;;;;;5114539;27;19923;-61
2021/08/15 13:27:06;;;;;;;;;;;27.60;70.50;;;;;;5131459;27;19927;-60
2021/08/15 13:29:33;;;;;;;;;;;27.70;70.60;;;;;;5131460;27;19972;-61
2021/08/15 13:32:00;;;;;;;;;;;27.60;70.40;;;;;;5117604;27;19967;-61
2021/08/15 13:34:28;;;;;;;;;;;27.70;70.20;;;;;;5130728;27;20283;-61
2021/08/15 13:36:55;;;;;;;;;;;27.60;69.90;;;;;;5133441;27;20295;-61
2021/08/15 13:39:22;;;;;;;;;;;27.70;69.80;;;;;;5132184;27;19923;-60
2021/08/15 13:41:49;;;;;;;;;;;27.70;70.10;;;;;;5121241;28;19923;-61
2021/08/15 13:44:16;;;;;;;;;;;27.70;69.80;;;;;;5126603;28;19923;-60
2021/08/15 13:46:45;;;;;;;;;;;27.70;69.40;;;;;;5132069;28;19991;-60
2021/08/15 13:49:12;;;;;;;;;;;27.70;69.70;;;;;;5133303;28;19962;-61
2021/08/15 13:51:39;;;;;;;;;;;27.60;69.60;;;;;;5126488;28;20290;-60
2021/08/15 13:54:07;;;;;;;;;;;27.70;69.30;;;;;;5118833;28;19969;-60
2021/08/15 13:56:35;;;;;;;;;;;27.70;69.60;;;;;;5125950;27;19923;-60
2021/08/15 13:59:15;;;;;;;;;;;27.70;69.20;;;;;;5136095;27;19930;-60
2021/08/15 14:01:42;;;;;;;;;;;27.70;69.60;;;;;;5135691;27;19946;-61
2021/08/15 14:04:10;;;;;;;;;;;27.70;69.60;;;;;;5136386;27;20302;-60
2021/08/15 14:06:38;;;;;;;;;;;27.70;69.40;;;;;;5137773;27;19934;-61
2021/08/15 14:09:06;;;;;;;;;;;27.70;69.20;;;;;;5137365;27;19923;-62
2021/08/15 14:11:33;;;;;;;;;;;27.70;69.30;;;;;;5135180;27;19982;-60
2021/08/15 14:14:02;;;;;;;;;;;27.70;69.30;;;;;;5137398;27;19972;-60
2021/08/15 14:16:31;;;;;;;;;;;27.70;69.10;;;;;;5135863;27;20398;-61
2021/08/15 14:19:00;;;;;;;;;;;27.70;69.40;;;;;;5135360;27;19923;-60
2021/08/15 14:21:29;;;;;;;;;;;27.70;69.40;;;;;;5119228;27;19924;-60
2021/08/15 14:23:56;;;;;;;;;;;27.70;69.50;;;;;;5135738;27;19928;-60